sensor_id;sensor_type;location;lat;lon;timestamp;pressure;altitude;pressure_sealevel;temperature;humidity
3780;BME280;1905;52.482;9.802;2023-04-24T00:00:12;99587.50;;;13.80;71.86
3780;BME280;1905;52.482;9.802;2023-04-24T00:02:41;99590.38;;;13.77;71.84
3780;BME280;1905;52.482;9.802;2023-04-24T00:05:14;99582.66;;;13.74;71.77
3780;BME280;1905;52.482;9.802;2023-04-24T00:07:42;99576.41;;;13.75;72.02
3780;BME280;1905;52.482;9.802;2023-04-24T00:10:11;99585.41;;;13.72;71.75
3780;BME280;1905;52.482;9.802;2023-04-24T00:12:40;99585.41;;;13.72;71.46
3780;BME280;1905;52.482;9.802;2023-04-24T00:15:08;99592.63;;;13.70;71.32
3780;BME280;1905;52.482;9.802;2023-04-24T00:17:36;99586.59;;;13.68;71.85
3780;BME280;1905;52.482;9.802;2023-04-24T00:20:05;99583.94;;;13.68;71.67
3780;BME280;1905;52.482;9.802;2023-04-24T00:22:33;99583.53;;;13.62;71.89
3780;BME280;1905;52.482;9.802;2023-04-24T00:25:01;99581.88;;;13.61;71.84
3780;BME280;1905;52.482;9.802;2023-04-24T00:27:29;99590.91;;;13.58;71.69
3780;BME280;1905;52.482;9.802;2023-04-24T00:29:58;99577.41;;;13.61;71.28
3780;BME280;1905;52.482;9.802;2023-04-24T00:32:25;99581.38;;;13.56;71.45
3780;BME280;1905;52.482;9.802;2023-04-24T00:34:54;99579.16;;;13.50;71.65
3780;BME280;1905;52.482;9.802;2023-04-24T00:37:22;99577.34;;;13.50;71.76
3780;BME280;1905;52.482;9.802;2023-04-24T00:39:49;99579.25;;;13.48;71.88
3780;BME280;1905;52.482;9.802;2023-04-24T00:42:17;99577.66;;;13.46;71.38
3780;BME280;1905;52.482;9.802;2023-04-24T00:44:44;99579.72;;;13.42;71.53
3780;BME280;1905;52.482;9.802;2023-04-24T00:47:13;99582.13;;;13.45;71.43
3780;BME280;1905;52.482;9.802;2023-04-24T00:49:41;99579.19;;;13.37;71.57
3780;BME280;1905;52.482;9.802;2023-04-24T00:52:09;99575.81;;;13.35;72.03
3780;BME280;1905;52.482;9.802;2023-04-24T00:54:37;99580.81;;;13.27;71.89
3780;BME280;1905;52.482;9.802;2023-04-24T00:57:04;99584.19;;;13.29;72.02
3780;BME280;1905;52.482;9.802;2023-04-24T00:59:32;99594.06;;;13.27;72.02
3780;BME280;1905;52.482;9.802;2023-04-24T01:02:00;99594.72;;;13.18;73.23
3780;BME280;1905;52.482;9.802;2023-04-24T01:04:29;99606.53;;;13.14;73.08
3780;BME280;1905;52.482;9.802;2023-04-24T01:06:57;99597.72;;;13.13;72.54
3780;BME280;1905;52.482;9.802;2023-04-24T01:09:24;99597.00;;;13.11;72.84
3780;BME280;1905;52.482;9.802;2023-04-24T01:11:52;99591.22;;;13.05;73.09
3780;BME280;1905;52.482;9.802;2023-04-24T01:14:20;99592.44;;;13.01;73.52
3780;BME280;1905;52.482;9.802;2023-04-24T01:16:48;99585.41;;;13.00;73.25
3780;BME280;1905;52.482;9.802;2023-04-24T01:19:18;99585.63;;;12.97;73.42
3780;BME280;1905;52.482;9.802;2023-04-24T01:21:50;99583.75;;;12.99;72.50
3780;BME280;1905;52.482;9.802;2023-04-24T01:24:19;99581.69;;;13.02;72.26
3780;BME280;1905;52.482;9.802;2023-04-24T01:26:47;99582.13;;;12.96;72.45
3780;BME280;1905;52.482;9.802;2023-04-24T01:29:14;99585.63;;;12.97;72.39
3780;BME280;1905;52.482;9.802;2023-04-24T01:31:42;99589.25;;;12.96;72.34
3780;BME280;1905;52.482;9.802;2023-04-24T01:34:10;99579.81;;;12.92;72.32
3780;BME280;1905;52.482;9.802;2023-04-24T01:36:38;99591.38;;;12.91;71.96
3780;BME280;1905;52.482;9.802;2023-04-24T01:39:06;99587.97;;;12.89;72.68
3780;BME280;1905;52.482;9.802;2023-04-24T01:41:35;99591.59;;;12.88;72.41
3780;BME280;1905;52.482;9.802;2023-04-24T01:44:03;99593.81;;;12.81;72.58
3780;BME280;1905;52.482;9.802;2023-04-24T01:46:30;99597.31;;;12.82;72.35
3780;BME280;1905;52.482;9.802;2023-04-24T01:49:00;99598.28;;;12.81;72.13
3780;BME280;1905;52.482;9.802;2023-04-24T01:51:28;99603.78;;;12.78;72.18
3780;BME280;1905;52.482;9.802;2023-04-24T01:53:56;99596.03;;;12.75;72.45
3780;BME280;1905;52.482;9.802;2023-04-24T01:56:24;99596.91;;;12.75;71.99
3780;BME280;1905;52.482;9.802;2023-04-24T01:58:54;99602.63;;;12.69;72.12
3780;BME280;1905;52.482;9.802;2023-04-24T02:01:33;99598.38;;;12.67;72.09
3780;BME280;1905;52.482;9.802;2023-04-24T02:04:02;99595.97;;;12.64;72.13
3780;BME280;1905;52.482;9.802;2023-04-24T02:06:30;99602.22;;;12.63;72.21
3780;BME280;1905;52.482;9.802;2023-04-24T02:09:00;99602.63;;;12.57;71.85
3780;BME280;1905;52.482;9.802;2023-04-24T02:11:28;99597.53;;;12.53;72.20
3780;BME280;1905;52.482;9.802;2023-04-24T02:13:57;99598.72;;;12.49;71.95
3780;BME280;1905;52.482;9.802;2023-04-24T02:16:51;99596.28;;;12.46;71.86
3780;BME280;1905;52.482;9.802;2023-04-24T02:19:19;99585.78;;;12.45;71.95
3780;BME280;1905;52.482;9.802;2023-04-24T02:21:49;99592.25;;;12.41;72.24
3780;BME280;1905;52.482;9.802;2023-04-24T02:24:17;99588.03;;;12.38;72.01
3780;BME280;1905;52.482;9.802;2023-04-24T02:26:44;99573.94;;;12.38;71.96
3780;BME280;1905;52.482;9.802;2023-04-24T02:29:13;99580.28;;;12.35;71.90
3780;BME280;1905;52.482;9.802;2023-04-24T02:31:41;99570.97;;;12.30;71.94
3780;BME280;1905;52.482;9.802;2023-04-24T02:34:09;99562.16;;;12.29;71.93
3780;BME280;1905;52.482;9.802;2023-04-24T02:36:36;99569.38;;;12.27;71.77
3780;BME280;1905;52.482;9.802;2023-04-24T02:39:04;99571.56;;;12.21;72.20
3780;BME280;1905;52.482;9.802;2023-04-24T02:41:32;99574.34;;;12.19;72.14
3780;BME280;1905;52.482;9.802;2023-04-24T02:43:59;99568.50;;;12.14;71.89
3780;BME280;1905;52.482;9.802;2023-04-24T02:46:28;99564.16;;;12.13;72.26
3780;BME280;1905;52.482;9.802;2023-04-24T02:48:56;99560.47;;;12.16;72.23
3780;BME280;1905;52.482;9.802;2023-04-24T02:51:23;99562.56;;;12.11;72.10
3780;BME280;1905;52.482;9.802;2023-04-24T02:53:51;99567.34;;;12.06;72.48
3780;BME280;1905;52.482;9.802;2023-04-24T02:56:18;99565.63;;;12.05;72.47
3780;BME280;1905;52.482;9.802;2023-04-24T02:58:46;99570.84;;;12.06;72.15
3780;BME280;1905;52.482;9.802;2023-04-24T03:01:14;99574.63;;;12.02;72.08
3780;BME280;1905;52.482;9.802;2023-04-24T03:03:43;99566.59;;;12.04;72.29
3780;BME280;1905;52.482;9.802;2023-04-24T03:06:11;99567.66;;;12.01;72.00
3780;BME280;1905;52.482;9.802;2023-04-24T03:08:38;99572.94;;;12.01;72.23
3780;BME280;1905;52.482;9.802;2023-04-24T03:11:06;99580.31;;;11.96;71.83
3780;BME280;1905;52.482;9.802;2023-04-24T03:13:33;99574.09;;;11.97;71.41
3780;BME280;1905;52.482;9.802;2023-04-24T03:16:01;99567.22;;;11.94;72.24
3780;BME280;1905;52.482;9.802;2023-04-24T03:18:29;99572.59;;;11.93;72.25
3780;BME280;1905;52.482;9.802;2023-04-24T03:20:58;99568.06;;;11.95;72.17
3780;BME280;1905;52.482;9.802;2023-04-24T03:23:26;99581.50;;;11.92;71.94
3780;BME280;1905;52.482;9.802;2023-04-24T03:25:53;99574.69;;;11.88;71.16
3780;BME280;1905;52.482;9.802;2023-04-24T03:28:21;99567.94;;;11.84;72.22
3780;BME280;1905;52.482;9.802;2023-04-24T03:30:56;99577.97;;;11.79;72.35
3780;BME280;1905;52.482;9.802;2023-04-24T03:33:25;99574.34;;;11.80;71.86
3780;BME280;1905;52.482;9.802;2023-04-24T03:36:00;99559.66;;;11.76;72.53
3780;BME280;1905;52.482;9.802;2023-04-24T03:38:35;99566.28;;;11.69;72.44
3780;BME280;1905;52.482;9.802;2023-04-24T03:41:28;99562.88;;;11.67;72.60
3780;BME280;1905;52.482;9.802;2023-04-24T03:44:08;99559.28;;;11.68;72.03
3780;BME280;1905;52.482;9.802;2023-04-24T03:46:36;99562.69;;;11.70;72.06
3780;BME280;1905;52.482;9.802;2023-04-24T03:49:04;99566.28;;;11.69;71.90
3780;BME280;1905;52.482;9.802;2023-04-24T03:51:37;99555.91;;;11.66;72.51
3780;BME280;1905;52.482;9.802;2023-04-24T03:54:17;99552.50;;;11.64;71.83
3780;BME280;1905;52.482;9.802;2023-04-24T03:56:45;99558.75;;;11.63;71.93
3780;BME280;1905;52.482;9.802;2023-04-24T03:59:12;99551.63;;;11.63;71.89
3780;BME280;1905;52.482;9.802;2023-04-24T04:01:46;99539.38;;;11.62;71.83
3780;BME280;1905;52.482;9.802;2023-04-24T04:04:16;99543.06;;;11.60;72.15
3780;BME280;1905;52.482;9.802;2023-04-24T04:06:46;99538.72;;;11.59;71.94
3780;BME280;1905;52.482;9.802;2023-04-24T04:09:14;99533.44;;;11.59;72.38
3780;BME280;1905;52.482;9.802;2023-04-24T04:11:42;99537.25;;;11.55;72.48
3780;BME280;1905;52.482;9.802;2023-04-24T04:14:11;99533.63;;;11.56;71.53
3780;BME280;1905;52.482;9.802;2023-04-24T04:16:42;99531.31;;;11.51;72.39
3780;BME280;1905;52.482;9.802;2023-04-24T04:19:10;99538.19;;;11.54;71.81
3780;BME280;1905;52.482;9.802;2023-04-24T04:21:40;99532.16;;;11.52;71.92
3780;BME280;1905;52.482;9.802;2023-04-24T04:24:17;99535.00;;;11.49;72.07
3780;BME280;1905;52.482;9.802;2023-04-24T04:26:45;99536.13;;;11.45;72.41
3780;BME280;1905;52.482;9.802;2023-04-24T04:29:21;99538.69;;;11.46;72.36
3780;BME280;1905;52.482;9.802;2023-04-24T04:31:50;99536.34;;;11.42;72.54
3780;BME280;1905;52.482;9.802;2023-04-24T04:34:20;99535.50;;;11.41;72.98
3780;BME280;1905;52.482;9.802;2023-04-24T04:36:49;99532.94;;;11.40;72.22
3780;BME280;1905;52.482;9.802;2023-04-24T04:39:29;99535.50;;;11.41;72.05
3780;BME280;1905;52.482;9.802;2023-04-24T04:42:03;99532.22;;;11.38;73.12
3780;BME280;1905;52.482;9.802;2023-04-24T04:44:37;99532.28;;;11.36;72.42
3780;BME280;1905;52.482;9.802;2023-04-24T04:47:06;99535.06;;;11.34;73.44
3780;BME280;1905;52.482;9.802;2023-04-24T04:49:35;99536.75;;;11.35;73.12
3780;BME280;1905;52.482;9.802;2023-04-24T04:52:04;99545.44;;;11.38;72.12
3780;BME280;1905;52.482;9.802;2023-04-24T04:54:33;99543.72;;;11.36;72.05
3780;BME280;1905;52.482;9.802;2023-04-24T04:57:01;99547.41;;;11.34;72.14
3780;BME280;1905;52.482;9.802;2023-04-24T04:59:31;99550.16;;;11.32;72.44
3780;BME280;1905;52.482;9.802;2023-04-24T05:02:04;99557.91;;;11.35;72.17
3780;BME280;1905;52.482;9.802;2023-04-24T05:04:32;99560.75;;;11.32;72.53
3780;BME280;1905;52.482;9.802;2023-04-24T05:07:00;99558.09;;;11.32;73.76
3780;BME280;1905;52.482;9.802;2023-04-24T05:09:31;99559.78;;;11.33;73.29
3780;BME280;1905;52.482;9.802;2023-04-24T05:12:03;99565.91;;;11.34;72.52
3780;BME280;1905;52.482;9.802;2023-04-24T05:14:36;99561.69;;;11.31;72.59
3780;BME280;1905;52.482;9.802;2023-04-24T05:17:03;99570.56;;;11.30;72.43
3780;BME280;1905;52.482;9.802;2023-04-24T05:19:32;99559.22;;;11.28;74.54
3780;BME280;1905;52.482;9.802;2023-04-24T05:22:02;99566.97;;;11.31;74.46
3780;BME280;1905;52.482;9.802;2023-04-24T05:24:36;99567.94;;;11.30;73.21
3780;BME280;1905;52.482;9.802;2023-04-24T05:27:11;99563.56;;;11.29;73.58
3780;BME280;1905;52.482;9.802;2023-04-24T05:29:40;99554.72;;;11.30;73.82
3780;BME280;1905;52.482;9.802;2023-04-24T05:32:08;99561.69;;;11.31;74.93
3780;BME280;1905;52.482;9.802;2023-04-24T05:34:36;99558.94;;;11.33;75.58
3780;BME280;1905;52.482;9.802;2023-04-24T05:37:03;99569.22;;;11.38;76.64
3780;BME280;1905;52.482;9.802;2023-04-24T05:39:34;99577.81;;;11.41;75.39
3780;BME280;1905;52.482;9.802;2023-04-24T05:42:02;99574.19;;;11.42;76.47
3780;BME280;1905;52.482;9.802;2023-04-24T05:44:32;99576.56;;;11.47;76.05
3780;BME280;1905;52.482;9.802;2023-04-24T05:46:59;99578.03;;;11.51;75.67
3780;BME280;1905;52.482;9.802;2023-04-24T05:49:28;99578.50;;;11.57;76.72
3780;BME280;1905;52.482;9.802;2023-04-24T05:51:56;99573.84;;;11.61;75.70
3780;BME280;1905;52.482;9.802;2023-04-24T05:54:24;99577.06;;;11.66;74.93
3780;BME280;1905;52.482;9.802;2023-04-24T05:56:52;99575.00;;;11.71;75.49
3780;BME280;1905;52.482;9.802;2023-04-24T05:59:32;99569.91;;;11.80;76.61
3780;BME280;1905;52.482;9.802;2023-04-24T06:01:59;99573.56;;;11.92;76.02
3780;BME280;1905;52.482;9.802;2023-04-24T06:04:28;99562.78;;;11.95;75.97
3780;BME280;1905;52.482;9.802;2023-04-24T06:06:57;99567.41;;;12.04;75.76
3780;BME280;1905;52.482;9.802;2023-04-24T06:09:25;99567.00;;;12.10;75.45
3780;BME280;1905;52.482;9.802;2023-04-24T06:11:53;99559.81;;;12.12;74.22
3780;BME280;1905;52.482;9.802;2023-04-24T06:14:26;99576.78;;;12.22;75.56
3780;BME280;1905;52.482;9.802;2023-04-24T06:17:15;99573.59;;;12.30;74.91
3780;BME280;1905;52.482;9.802;2023-04-24T06:19:45;99572.34;;;12.35;74.03
3780;BME280;1905;52.482;9.802;2023-04-24T06:22:13;99578.91;;;12.42;74.28
3780;BME280;1905;52.482;9.802;2023-04-24T06:24:41;99578.47;;;12.48;73.35
3780;BME280;1905;52.482;9.802;2023-04-24T06:27:09;99577.41;;;12.51;73.14
3780;BME280;1905;52.482;9.802;2023-04-24T06:29:39;99584.09;;;12.57;72.83
3780;BME280;1905;52.482;9.802;2023-04-24T06:32:07;99570.63;;;12.60;72.85
3780;BME280;1905;52.482;9.802;2023-04-24T06:34:36;99577.19;;;12.67;72.05
3780;BME280;1905;52.482;9.802;2023-04-24T06:37:04;99570.72;;;12.71;72.21
3780;BME280;1905;52.482;9.802;2023-04-24T06:39:31;99572.31;;;12.73;71.41
3780;BME280;1905;52.482;9.802;2023-04-24T06:41:59;99579.13;;;12.77;71.31
3780;BME280;1905;52.482;9.802;2023-04-24T06:44:26;99574.53;;;12.79;71.32
3780;BME280;1905;52.482;9.802;2023-04-24T06:46:54;99578.56;;;12.85;70.95
3780;BME280;1905;52.482;9.802;2023-04-24T06:49:21;99581.00;;;12.88;70.77
3780;BME280;1905;52.482;9.802;2023-04-24T06:51:50;99590.63;;;12.89;71.13
3780;BME280;1905;52.482;9.802;2023-04-24T06:54:18;99607.28;;;12.91;70.24
3780;BME280;1905;52.482;9.802;2023-04-24T06:56:45;99601.88;;;12.92;69.37
3780;BME280;1905;52.482;9.802;2023-04-24T06:59:14;99604.09;;;12.98;70.24
3780;BME280;1905;52.482;9.802;2023-04-24T07:01:41;99601.09;;;13.03;69.62
3780;BME280;1905;52.482;9.802;2023-04-24T07:04:09;99597.72;;;13.01;69.50
3780;BME280;1905;52.482;9.802;2023-04-24T07:06:38;99613.41;;;13.04;69.34
3780;BME280;1905;52.482;9.802;2023-04-24T07:09:07;99612.34;;;13.06;69.71
3780;BME280;1905;52.482;9.802;2023-04-24T07:11:36;99612.25;;;13.08;69.24
3780;BME280;1905;52.482;9.802;2023-04-24T07:14:05;99610.97;;;13.13;69.61
3780;BME280;1905;52.482;9.802;2023-04-24T07:16:33;99628.47;;;13.16;69.65
3780;BME280;1905;52.482;9.802;2023-04-24T07:19:00;99625.94;;;13.15;69.67
3780;BME280;1905;52.482;9.802;2023-04-24T07:21:28;99619.22;;;13.22;69.50
3780;BME280;1905;52.482;9.802;2023-04-24T07:23:57;99619.13;;;13.23;69.12
3780;BME280;1905;52.482;9.802;2023-04-24T07:26:26;99626.13;;;13.24;69.86
3780;BME280;1905;52.482;9.802;2023-04-24T07:28:54;99620.81;;;13.24;69.36
3780;BME280;1905;52.482;9.802;2023-04-24T07:31:22;99627.38;;;13.31;69.19
3780;BME280;1905;52.482;9.802;2023-04-24T07:33:50;99628.22;;;13.32;69.54
3780;BME280;1905;52.482;9.802;2023-04-24T07:36:17;99640.53;;;13.33;69.15
3780;BME280;1905;52.482;9.802;2023-04-24T07:38:46;99631.72;;;13.32;68.71
3780;BME280;1905;52.482;9.802;2023-04-24T07:41:14;99634.16;;;13.35;68.72
3780;BME280;1905;52.482;9.802;2023-04-24T07:43:44;99638.38;;;13.38;67.01
3780;BME280;1905;52.482;9.802;2023-04-24T07:46:12;99645.41;;;13.39;67.78
3780;BME280;1905;52.482;9.802;2023-04-24T07:48:39;99638.81;;;13.44;67.70
3780;BME280;1905;52.482;9.802;2023-04-24T07:51:07;99650.34;;;13.43;67.22
3780;BME280;1905;52.482;9.802;2023-04-24T07:53:36;99654.72;;;13.44;67.43
3780;BME280;1905;52.482;9.802;2023-04-24T07:56:04;99670.50;;;13.46;66.54
3780;BME280;1905;52.482;9.802;2023-04-24T07:58:32;99663.41;;;13.46;65.12
3780;BME280;1905;52.482;9.802;2023-04-24T08:01:00;99671.47;;;13.45;65.35
3780;BME280;1905;52.482;9.802;2023-04-24T08:03:28;99677.91;;;13.53;65.62
3780;BME280;1905;52.482;9.802;2023-04-24T08:05:56;99675.50;;;13.50;65.29
3780;BME280;1905;52.482;9.802;2023-04-24T08:08:24;99676.44;;;13.49;66.05
3780;BME280;1905;52.482;9.802;2023-04-24T08:10:52;99664.88;;;13.50;65.26
3780;BME280;1905;52.482;9.802;2023-04-24T08:13:20;99682.06;;;13.57;65.62
3780;BME280;1905;52.482;9.802;2023-04-24T08:15:47;99671.31;;;13.59;64.92
3780;BME280;1905;52.482;9.802;2023-04-24T08:18:16;99685.94;;;13.64;65.58
3780;BME280;1905;52.482;9.802;2023-04-24T08:20:44;99689.13;;;13.69;65.98
3780;BME280;1905;52.482;9.802;2023-04-24T08:23:12;99680.41;;;13.67;65.33
3780;BME280;1905;52.482;9.802;2023-04-24T08:25:40;99684.34;;;13.75;66.61
3780;BME280;1905;52.482;9.802;2023-04-24T08:28:08;99680.78;;;13.87;65.26
3780;BME280;1905;52.482;9.802;2023-04-24T08:30:36;99678.88;;;13.89;66.14
3780;BME280;1905;52.482;9.802;2023-04-24T08:33:04;99686.00;;;13.88;64.22
3780;BME280;1905;52.482;9.802;2023-04-24T08:35:33;99692.44;;;13.97;65.28
3780;BME280;1905;52.482;9.802;2023-04-24T08:38:01;99676.44;;;13.86;64.29
3780;BME280;1905;52.482;9.802;2023-04-24T08:40:29;99683.94;;;13.92;64.75
3780;BME280;1905;52.482;9.802;2023-04-24T08:42:59;99684.22;;;14.00;65.31
3780;BME280;1905;52.482;9.802;2023-04-24T08:45:27;99683.31;;;14.12;66.43
3780;BME280;1905;52.482;9.802;2023-04-24T08:47:55;99682.25;;;14.14;65.69
3780;BME280;1905;52.482;9.802;2023-04-24T08:50:22;99684.91;;;14.14;64.67
3780;BME280;1905;52.482;9.802;2023-04-24T08:52:52;99680.72;;;14.23;65.68
3780;BME280;1905;52.482;9.802;2023-04-24T08:55:20;99681.44;;;14.25;63.67
3780;BME280;1905;52.482;9.802;2023-04-24T08:57:50;99687.97;;;14.21;62.95
3780;BME280;1905;52.482;9.802;2023-04-24T09:00:19;99682.72;;;14.32;64.54
3780;BME280;1905;52.482;9.802;2023-04-24T09:02:49;99686.03;;;14.47;65.22
3780;BME280;1905;52.482;9.802;2023-04-24T09:05:17;99680.50;;;14.50;64.26
3780;BME280;1905;52.482;9.802;2023-04-24T09:07:49;99695.63;;;14.60;64.47
3780;BME280;1905;52.482;9.802;2023-04-24T09:10:18;99696.69;;;14.58;63.08
3780;BME280;1905;52.482;9.802;2023-04-24T09:12:47;99693.69;;;14.62;63.03
3780;BME280;1905;52.482;9.802;2023-04-24T09:15:14;99703.75;;;14.70;64.07
3780;BME280;1905;52.482;9.802;2023-04-24T09:17:43;99697.59;;;14.80;63.45
3780;BME280;1905;52.482;9.802;2023-04-24T09:20:10;99701.22;;;14.79;62.43
3780;BME280;1905;52.482;9.802;2023-04-24T09:22:38;99697.00;;;14.77;61.97
3780;BME280;1905;52.482;9.802;2023-04-24T09:25:07;99692.53;;;14.77;61.08
3780;BME280;1905;52.482;9.802;2023-04-24T09:27:41;99702.47;;;14.86;63.75
3780;BME280;1905;52.482;9.802;2023-04-24T09:30:10;99697.72;;;14.90;63.23
3780;BME280;1905;52.482;9.802;2023-04-24T09:32:38;99696.38;;;14.84;61.06
3780;BME280;1905;52.482;9.802;2023-04-24T09:35:08;99695.91;;;14.79;61.59
3780;BME280;1905;52.482;9.802;2023-04-24T09:37:37;99691.69;;;14.88;62.31
3780;BME280;1905;52.482;9.802;2023-04-24T09:40:13;99706.19;;;14.95;62.93
3780;BME280;1905;52.482;9.802;2023-04-24T09:42:44;99701.88;;;15.05;62.83
3780;BME280;1905;52.482;9.802;2023-04-24T09:45:12;99702.22;;;15.01;62.10
3780;BME280;1905;52.482;9.802;2023-04-24T09:47:43;99703.69;;;15.05;62.06
3780;BME280;1905;52.482;9.802;2023-04-24T09:50:13;99711.44;;;15.08;62.14
3780;BME280;1905;52.482;9.802;2023-04-24T09:52:43;99714.56;;;15.13;62.91
3780;BME280;1905;52.482;9.802;2023-04-24T09:55:13;99709.25;;;15.02;61.75
3780;BME280;1905;52.482;9.802;2023-04-24T09:57:55;99709.84;;;14.94;59.43
3780;BME280;1905;52.482;9.802;2023-04-24T10:00:24;99713.09;;;14.98;60.96
3780;BME280;1905;52.482;9.802;2023-04-24T10:02:59;99716.13;;;15.04;62.27
3780;BME280;1905;52.482;9.802;2023-04-24T10:05:28;99708.53;;;15.00;61.55
3780;BME280;1905;52.482;9.802;2023-04-24T10:07:57;99710.94;;;15.03;61.88
3780;BME280;1905;52.482;9.802;2023-04-24T10:10:25;99712.13;;;14.99;59.44
3780;BME280;1905;52.482;9.802;2023-04-24T10:12:54;99710.69;;;14.95;60.77
3780;BME280;1905;52.482;9.802;2023-04-24T10:15:22;99707.66;;;14.99;60.65
3780;BME280;1905;52.482;9.802;2023-04-24T10:17:50;99707.19;;;14.94;60.46
3780;BME280;1905;52.482;9.802;2023-04-24T10:20:20;99719.41;;;15.08;61.76
3780;BME280;1905;52.482;9.802;2023-04-24T10:22:50;99699.31;;;15.04;61.03
3780;BME280;1905;52.482;9.802;2023-04-24T10:25:19;99701.66;;;15.08;61.34
3780;BME280;1905;52.482;9.802;2023-04-24T10:27:48;99707.44;;;15.13;61.76
3780;BME280;1905;52.482;9.802;2023-04-24T10:30:18;99709.00;;;15.05;59.76
3780;BME280;1905;52.482;9.802;2023-04-24T10:32:46;99694.25;;;15.01;61.15
3780;BME280;1905;52.482;9.802;2023-04-24T10:35:15;99706.34;;;15.05;60.43
3780;BME280;1905;52.482;9.802;2023-04-24T10:37:45;99698.38;;;15.05;61.07
3780;BME280;1905;52.482;9.802;2023-04-24T10:40:17;99705.88;;;15.11;61.56
3780;BME280;1905;52.482;9.802;2023-04-24T10:42:47;99700.56;;;15.11;60.85
3780;BME280;1905;52.482;9.802;2023-04-24T10:45:20;99701.75;;;15.07;60.21
3780;BME280;1905;52.482;9.802;2023-04-24T10:47:59;99711.75;;;15.03;60.31
3780;BME280;1905;52.482;9.802;2023-04-24T10:50:42;99709.72;;;15.07;61.24
3780;BME280;1905;52.482;9.802;2023-04-24T10:53:13;99709.09;;;15.03;60.69
3780;BME280;1905;52.482;9.802;2023-04-24T10:55:43;99699.78;;;14.98;61.63
3780;BME280;1905;52.482;9.802;2023-04-24T10:58:11;99707.44;;;15.02;61.17
3780;BME280;1905;52.482;9.802;2023-04-24T11:00:41;99712.97;;;14.88;60.43
3780;BME280;1905;52.482;9.802;2023-04-24T11:03:24;99708.97;;;14.94;61.83
3780;BME280;1905;52.482;9.802;2023-04-24T11:05:56;99710.16;;;14.89;61.22
3780;BME280;1905;52.482;9.802;2023-04-24T11:08:26;99715.75;;;14.98;61.48
3780;BME280;1905;52.482;9.802;2023-04-24T11:11:08;99718.16;;;15.01;61.62
3780;BME280;1905;52.482;9.802;2023-04-24T11:14:01;99719.25;;;14.98;60.93
3780;BME280;1905;52.482;9.802;2023-04-24T11:16:32;99709.69;;;14.84;60.80
3780;BME280;1905;52.482;9.802;2023-04-24T11:19:05;99710.44;;;14.86;61.12
3780;BME280;1905;52.482;9.802;2023-04-24T11:21:41;99714.53;;;14.90;61.24
3780;BME280;1905;52.482;9.802;2023-04-24T11:24:23;99711.75;;;14.92;61.53
3780;BME280;1905;52.482;9.802;2023-04-24T11:26:51;99708.38;;;14.90;61.71
3780;BME280;1905;52.482;9.802;2023-04-24T11:29:19;99711.16;;;14.88;61.82
3780;BME280;1905;52.482;9.802;2023-04-24T11:31:50;99715.72;;;14.75;60.25
3780;BME280;1905;52.482;9.802;2023-04-24T11:34:20;99715.47;;;14.78;61.32
3780;BME280;1905;52.482;9.802;2023-04-24T11:36:49;99715.72;;;14.75;61.79
3780;BME280;1905;52.482;9.802;2023-04-24T11:39:17;99715.97;;;14.72;61.40
3780;BME280;1905;52.482;9.802;2023-04-24T11:41:46;99715.19;;;14.59;59.86
3780;BME280;1905;52.482;9.802;2023-04-24T11:44:14;99716.00;;;14.60;61.63
3780;BME280;1905;52.482;9.802;2023-04-24T11:46:42;99720.50;;;14.59;61.54
3780;BME280;1905;52.482;9.802;2023-04-24T11:49:12;99725.81;;;14.59;61.16
3780;BME280;1905;52.482;9.802;2023-04-24T11:51:39;99726.88;;;14.57;60.35
3780;BME280;1905;52.482;9.802;2023-04-24T11:54:18;99712.72;;;14.45;59.23
3780;BME280;1905;52.482;9.802;2023-04-24T11:56:46;99728.44;;;14.48;61.17
3780;BME280;1905;52.482;9.802;2023-04-24T11:59:14;99722.16;;;14.49;61.29
3780;BME280;1905;52.482;9.802;2023-04-24T12:01:45;99726.09;;;14.44;61.27
3780;BME280;1905;52.482;9.802;2023-04-24T12:04:15;99726.72;;;14.47;61.96
3780;BME280;1905;52.482;9.802;2023-04-24T12:06:58;99727.38;;;14.51;62.01
3780;BME280;1905;52.482;9.802;2023-04-24T12:09:26;99733.13;;;14.45;61.62
3780;BME280;1905;52.482;9.802;2023-04-24T12:11:53;99731.03;;;14.37;61.27
3780;BME280;1905;52.482;9.802;2023-04-24T12:14:22;99735.91;;;14.30;60.81
3780;BME280;1905;52.482;9.802;2023-04-24T12:16:49;99732.53;;;14.28;60.43
3780;BME280;1905;52.482;9.802;2023-04-24T12:19:20;99730.19;;;14.37;61.13
3780;BME280;1905;52.482;9.802;2023-04-24T12:21:59;99727.91;;;14.43;61.72
3780;BME280;1905;52.482;9.802;2023-04-24T12:24:27;99732.84;;;14.37;60.35
3780;BME280;1905;52.482;9.802;2023-04-24T12:26:55;99730.28;;;14.35;61.62
3780;BME280;1905;52.482;9.802;2023-04-24T12:29:23;99741.91;;;14.34;60.76
3780;BME280;1905;52.482;9.802;2023-04-24T12:31:51;99739.97;;;14.36;62.42
3780;BME280;1905;52.482;9.802;2023-04-24T12:34:21;99739.97;;;14.36;62.07
3780;BME280;1905;52.482;9.802;2023-04-24T12:36:49;99751.78;;;14.32;61.82
3780;BME280;1905;52.482;9.802;2023-04-24T12:39:16;99755.06;;;14.36;62.31
3780;BME280;1905;52.482;9.802;2023-04-24T12:41:54;99748.06;;;14.35;61.75
3780;BME280;1905;52.482;9.802;2023-04-24T12:44:30;99763.16;;;14.34;61.27
3780;BME280;1905;52.482;9.802;2023-04-24T12:46:57;99752.88;;;14.17;61.83
3780;BME280;1905;52.482;9.802;2023-04-24T12:49:27;99765.41;;;14.15;61.30
3780;BME280;1905;52.482;9.802;2023-04-24T12:51:55;99769.75;;;14.16;62.42
3780;BME280;1905;52.482;9.802;2023-04-24T12:54:22;99771.69;;;14.14;61.73
3780;BME280;1905;52.482;9.802;2023-04-24T12:56:50;99784.97;;;14.14;62.29
3780;BME280;1905;52.482;9.802;2023-04-24T12:59:19;99795.50;;;14.15;61.85
3780;BME280;1905;52.482;9.802;2023-04-24T13:01:46;99785.41;;;14.08;61.95
3780;BME280;1905;52.482;9.802;2023-04-24T13:04:14;99782.53;;;14.11;62.51
3780;BME280;1905;52.482;9.802;2023-04-24T13:06:44;99790.09;;;14.04;63.28
3780;BME280;1905;52.482;9.802;2023-04-24T13:09:12;99795.28;;;14.06;62.54
3780;BME280;1905;52.482;9.802;2023-04-24T13:11:39;99805.19;;;14.04;63.01
3780;BME280;1905;52.482;9.802;2023-04-24T13:14:07;99820.59;;;13.99;62.91
3780;BME280;1905;52.482;9.802;2023-04-24T13:16:34;99825.38;;;13.94;62.98
3780;BME280;1905;52.482;9.802;2023-04-24T13:19:02;99823.59;;;13.82;63.38
3780;BME280;1905;52.482;9.802;2023-04-24T13:21:30;99822.84;;;13.80;64.33
3780;BME280;1905;52.482;9.802;2023-04-24T13:23:59;99830.59;;;13.83;64.34
3780;BME280;1905;52.482;9.802;2023-04-24T13:26:27;99837.41;;;13.74;64.88
3780;BME280;1905;52.482;9.802;2023-04-24T13:28:55;99835.47;;;13.76;64.69
3780;BME280;1905;52.482;9.802;2023-04-24T13:31:22;99850.34;;;13.66;65.37
3780;BME280;1905;52.482;9.802;2023-04-24T13:33:49;99836.75;;;13.70;65.26